sensor_id;sensor_type;location;lat;lon;timestamp;P1;durP1;ratioP1;P2;durP2;ratioP2
16330;SDS011;8275;48.206;16.340;2022-08-21T00:00:52;1.60;;;1.50;;
16330;SDS011;8275;48.206;16.340;2022-08-21T00:03:20;1.60;;;1.50;;
16330;SDS011;8275;48.206;16.340;2022-08-21T00:05:49;2.03;;;1.83;;
16330;SDS011;8275;48.206;16.340;2022-08-21T00:08:20;2.38;;;2.17;;
16330;SDS011;8275;48.206;16.340;2022-08-21T00:10:48;1.80;;;1.70;;
16330;SDS011;8275;48.206;16.340;2022-08-21T00:13:17;1.55;;;1.45;;
16330;SDS011;8275;48.206;16.340;2022-08-21T00:15:47;1.80;;;1.70;;
16330;SDS011;8275;48.206;16.340;2022-08-21T00:18:18;1.55;;;1.45;;
16330;SDS011;8275;48.206;16.340;2022-08-21T00:20:46;1.52;;;1.42;;
16330;SDS011;8275;48.206;16.340;2022-08-21T00:23:15;1.98;;;1.83;;
16330;SDS011;8275;48.206;16.340;2022-08-21T00:25:44;1.77;;;1.67;;
16330;SDS011;8275;48.206;16.340;2022-08-21T00:28:13;2.67;;;2.47;;
16330;SDS011;8275;48.206;16.340;2022-08-21T00:30:42;2.45;;;2.35;;
16330;SDS011;8275;48.206;16.340;2022-08-21T00:33:12;1.90;;;1.80;;
16330;SDS011;8275;48.206;16.340;2022-08-21T00:35:42;3.25;;;2.78;;
16330;SDS011;8275;48.206;16.340;2022-08-21T00:38:11;1.88;;;1.77;;
16330;SDS011;8275;48.206;16.340;2022-08-21T00:40:41;2.60;;;2.40;;
16330;SDS011;8275;48.206;16.340;2022-08-21T00:43:14;2.55;;;2.38;;
16330;SDS011;8275;48.206;16.340;2022-08-21T00:45:46;3.08;;;2.72;;
16330;SDS011;8275;48.206;16.340;2022-08-21T00:48:15;1.80;;;1.70;;
16330;SDS011;8275;48.206;16.340;2022-08-21T00:50:46;3.25;;;1.73;;
16330;SDS011;8275;48.206;16.340;2022-08-21T00:53:20;1.88;;;1.77;;
16330;SDS011;8275;48.206;16.340;2022-08-21T00:55:49;2.85;;;2.22;;
16330;SDS011;8275;48.206;16.340;2022-08-21T00:58:21;2.20;;;2.10;;
16330;SDS011;8275;48.206;16.340;2022-08-21T01:00:53;2.75;;;2.60;;
16330;SDS011;8275;48.206;16.340;2022-08-21T01:03:22;2.88;;;2.67;;
16330;SDS011;8275;48.206;16.340;2022-08-21T01:05:53;2.30;;;2.20;;
16330;SDS011;8275;48.206;16.340;2022-08-21T01:08:22;2.75;;;2.55;;
16330;SDS011;8275;48.206;16.340;2022-08-21T01:10:52;2.40;;;2.22;;
16330;SDS011;8275;48.206;16.340;2022-08-21T01:13:21;2.47;;;2.28;;
16330;SDS011;8275;48.206;16.340;2022-08-21T01:15:51;2.10;;;1.98;;
16330;SDS011;8275;48.206;16.340;2022-08-21T01:18:23;3.97;;;3.67;;
16330;SDS011;8275;48.206;16.340;2022-08-21T01:21:08;2.65;;;2.38;;
16330;SDS011;8275;48.206;16.340;2022-08-21T01:23:40;2.58;;;2.38;;
16330;SDS011;8275;48.206;16.340;2022-08-21T01:26:12;2.63;;;2.42;;
16330;SDS011;8275;48.206;16.340;2022-08-21T01:28:44;3.25;;;3.05;;
16330;SDS011;8275;48.206;16.340;2022-08-21T01:31:20;2.95;;;2.58;;
16330;SDS011;8275;48.206;16.340;2022-08-21T01:33:53;3.50;;;3.22;;
16330;SDS011;8275;48.206;16.340;2022-08-21T01:36:24;2.67;;;2.47;;
16330;SDS011;8275;48.206;16.340;2022-08-21T01:38:53;3.08;;;2.45;;
16330;SDS011;8275;48.206;16.340;2022-08-21T01:41:22;2.83;;;2.67;;
16330;SDS011;8275;48.206;16.340;2022-08-21T01:43:50;2.10;;;2.00;;
16330;SDS011;8275;48.206;16.340;2022-08-21T01:46:19;2.50;;;2.40;;
16330;SDS011;8275;48.206;16.340;2022-08-21T01:48:47;2.95;;;2.75;;
16330;SDS011;8275;48.206;16.340;2022-08-21T01:51:16;4.03;;;3.13;;
16330;SDS011;8275;48.206;16.340;2022-08-21T01:53:46;2.30;;;2.10;;
16330;SDS011;8275;48.206;16.340;2022-08-21T01:56:16;2.38;;;2.22;;
16330;SDS011;8275;48.206;16.340;2022-08-21T01:58:46;1.90;;;1.80;;
16330;SDS011;8275;48.206;16.340;2022-08-21T02:01:15;2.05;;;1.95;;
16330;SDS011;8275;48.206;16.340;2022-08-21T02:03:44;2.05;;;1.95;;
16330;SDS011;8275;48.206;16.340;2022-08-21T02:06:13;2.53;;;1.85;;
16330;SDS011;8275;48.206;16.340;2022-08-21T02:08:44;2.38;;;2.25;;
16330;SDS011;8275;48.206;16.340;2022-08-21T02:11:16;2.45;;;2.33;;
16330;SDS011;8275;48.206;16.340;2022-08-21T02:13:45;2.35;;;2.25;;
16330;SDS011;8275;48.206;16.340;2022-08-21T02:16:13;1.90;;;1.75;;
16330;SDS011;8275;48.206;16.340;2022-08-21T02:18:44;1.95;;;1.83;;
16330;SDS011;8275;48.206;16.340;2022-08-21T02:21:14;2.95;;;2.75;;
16330;SDS011;8275;48.206;16.340;2022-08-21T02:23:42;2.38;;;2.17;;
16330;SDS011;8275;48.206;16.340;2022-08-21T02:26:13;1.75;;;1.63;;
16330;SDS011;8275;48.206;16.340;2022-08-21T02:28:41;2.90;;;2.70;;
16330;SDS011;8275;48.206;16.340;2022-08-21T02:31:10;2.20;;;2.08;;
16330;SDS011;8275;48.206;16.340;2022-08-21T02:33:39;1.73;;;1.63;;
16330;SDS011;8275;48.206;16.340;2022-08-21T02:36:08;1.55;;;1.45;;
16330;SDS011;8275;48.206;16.340;2022-08-21T02:38:38;1.70;;;1.60;;
16330;SDS011;8275;48.206;16.340;2022-08-21T02:41:10;2.20;;;2.03;;
16330;SDS011;8275;48.206;16.340;2022-08-21T02:43:42;1.92;;;1.75;;
16330;SDS011;8275;48.206;16.340;2022-08-21T02:46:12;2.03;;;1.92;;
16330;SDS011;8275;48.206;16.340;2022-08-21T02:48:43;2.15;;;1.67;;
16330;SDS011;8275;48.206;16.340;2022-08-21T02:51:13;1.67;;;1.58;;
16330;SDS011;8275;48.206;16.340;2022-08-21T02:53:45;1.52;;;1.42;;
16330;SDS011;8275;48.206;16.340;2022-08-21T02:56:17;1.95;;;1.85;;
16330;SDS011;8275;48.206;16.340;2022-08-21T02:58:50;1.30;;;1.20;;
16330;SDS011;8275;48.206;16.340;2022-08-21T03:01:19;2.28;;;2.08;;
16330;SDS011;8275;48.206;16.340;2022-08-21T03:03:48;1.75;;;1.65;;
16330;SDS011;8275;48.206;16.340;2022-08-21T03:06:18;1.70;;;1.60;;
16330;SDS011;8275;48.206;16.340;2022-08-21T03:08:48;2.35;;;2.15;;
16330;SDS011;8275;48.206;16.340;2022-08-21T03:11:18;1.67;;;1.58;;
16330;SDS011;8275;48.206;16.340;2022-08-21T03:13:47;6.18;;;2.28;;
16330;SDS011;8275;48.206;16.340;2022-08-21T03:16:15;1.80;;;1.70;;
16330;SDS011;8275;48.206;16.340;2022-08-21T03:18:45;1.60;;;1.48;;
16330;SDS011;8275;48.206;16.340;2022-08-21T03:21:14;2.00;;;1.90;;
16330;SDS011;8275;48.206;16.340;2022-08-21T03:23:45;6.35;;;1.55;;
16330;SDS011;8275;48.206;16.340;2022-08-21T03:26:13;1.45;;;1.35;;
16330;SDS011;8275;48.206;16.340;2022-08-21T03:28:46;1.75;;;1.58;;
16330;SDS011;8275;48.206;16.340;2022-08-21T03:31:15;1.35;;;1.25;;
16330;SDS011;8275;48.206;16.340;2022-08-21T03:33:43;1.60;;;1.50;;
16330;SDS011;8275;48.206;16.340;2022-08-21T03:36:12;1.00;;;1.00;;
16330;SDS011;8275;48.206;16.340;2022-08-21T03:38:40;1.00;;;1.00;;
16330;SDS011;8275;48.206;16.340;2022-08-21T03:41:09;0.80;;;0.80;;
16330;SDS011;8275;48.206;16.340;2022-08-21T03:43:38;1.63;;;0.85;;
16330;SDS011;8275;48.206;16.340;2022-08-21T03:46:07;0.93;;;0.90;;
16330;SDS011;8275;48.206;16.340;2022-08-21T03:48:37;1.10;;;1.00;;
16330;SDS011;8275;48.206;16.340;2022-08-21T03:51:07;0.60;;;0.60;;
16330;SDS011;8275;48.206;16.340;2022-08-21T03:53:35;0.85;;;0.70;;
16330;SDS011;8275;48.206;16.340;2022-08-21T03:56:04;0.90;;;0.90;;
16330;SDS011;8275;48.206;16.340;2022-08-21T03:58:34;0.80;;;0.80;;
16330;SDS011;8275;48.206;16.340;2022-08-21T04:01:02;0.65;;;0.65;;
16330;SDS011;8275;48.206;16.340;2022-08-21T04:03:35;0.82;;;0.82;;
16330;SDS011;8275;48.206;16.340;2022-08-21T04:06:05;0.75;;;0.75;;
16330;SDS011;8275;48.206;16.340;2022-08-21T04:08:34;0.70;;;0.70;;
16330;SDS011;8275;48.206;16.340;2022-08-21T04:11:03;1.30;;;1.20;;
16330;SDS011;8275;48.206;16.340;2022-08-21T04:13:32;0.80;;;0.80;;
16330;SDS011;8275;48.206;16.340;2022-08-21T04:16:09;0.88;;;0.88;;
16330;SDS011;8275;48.206;16.340;2022-08-21T04:18:39;0.75;;;0.75;;
16330;SDS011;8275;48.206;16.340;2022-08-21T04:21:09;0.88;;;0.88;;
16330;SDS011;8275;48.206;16.340;2022-08-21T04:23:39;1.20;;;1.10;;
16330;SDS011;8275;48.206;16.340;2022-08-21T04:26:07;0.60;;;0.60;;
16330;SDS011;8275;48.206;16.340;2022-08-21T04:28:36;0.88;;;0.88;;
16330;SDS011;8275;48.206;16.340;2022-08-21T04:31:04;1.67;;;1.58;;
16330;SDS011;8275;48.206;16.340;2022-08-21T04:33:34;1.30;;;1.20;;
16330;SDS011;8275;48.206;16.340;2022-08-21T04:36:05;1.58;;;1.48;;
16330;SDS011;8275;48.206;16.340;2022-08-21T04:38:34;1.10;;;1.10;;
16330;SDS011;8275;48.206;16.340;2022-08-21T04:41:08;1.42;;;1.33;;
16330;SDS011;8275;48.206;16.340;2022-08-21T04:43:37;1.17;;;1.08;;
16330;SDS011;8275;48.206;16.340;2022-08-21T04:46:06;1.55;;;1.45;;
16330;SDS011;8275;48.206;16.340;2022-08-21T04:48:39;1.05;;;1.05;;
16330;SDS011;8275;48.206;16.340;2022-08-21T04:51:09;1.88;;;1.77;;
16330;SDS011;8275;48.206;16.340;2022-08-21T04:53:43;1.55;;;1.45;;
16330;SDS011;8275;48.206;16.340;2022-08-21T04:56:19;1.45;;;1.35;;
16330;SDS011;8275;48.206;16.340;2022-08-21T04:58:51;1.33;;;1.23;;
16330;SDS011;8275;48.206;16.340;2022-08-21T05:01:24;1.13;;;1.13;;
16330;SDS011;8275;48.206;16.340;2022-08-21T05:03:56;1.48;;;1.38;;
16330;SDS011;8275;48.206;16.340;2022-08-21T05:06:29;0.98;;;0.98;;
16330;SDS011;8275;48.206;16.340;2022-08-21T05:09:03;1.95;;;1.00;;
16330;SDS011;8275;48.206;16.340;2022-08-21T05:11:32;1.48;;;1.38;;
16330;SDS011;8275;48.206;16.340;2022-08-21T05:14:01;1.23;;;1.13;;
16330;SDS011;8275;48.206;16.340;2022-08-21T05:16:29;1.95;;;1.85;;
16330;SDS011;8275;48.206;16.340;2022-08-21T05:19:03;1.40;;;1.30;;
16330;SDS011;8275;48.206;16.340;2022-08-21T05:21:33;1.48;;;1.38;;
16330;SDS011;8275;48.206;16.340;2022-08-21T05:24:03;1.80;;;1.70;;
16330;SDS011;8275;48.206;16.340;2022-08-21T05:26:31;1.20;;;1.10;;
16330;SDS011;8275;48.206;16.340;2022-08-21T05:29:12;1.90;;;1.80;;
16330;SDS011;8275;48.206;16.340;2022-08-21T05:31:42;2.08;;;1.98;;
16330;SDS011;8275;48.206;16.340;2022-08-21T05:34:11;1.92;;;1.83;;
16330;SDS011;8275;48.206;16.340;2022-08-21T05:36:43;1.42;;;1.27;;
16330;SDS011;8275;48.206;16.340;2022-08-21T05:39:13;2.95;;;2.28;;
16330;SDS011;8275;48.206;16.340;2022-08-21T05:41:42;1.90;;;1.73;;
16330;SDS011;8275;48.206;16.340;2022-08-21T05:44:10;1.80;;;1.70;;
16330;SDS011;8275;48.206;16.340;2022-08-21T05:46:38;2.20;;;2.00;;
16330;SDS011;8275;48.206;16.340;2022-08-21T05:49:07;2.22;;;2.05;;
16330;SDS011;8275;48.206;16.340;2022-08-21T05:51:36;1.90;;;1.80;;
16330;SDS011;8275;48.206;16.340;2022-08-21T05:54:08;1.85;;;1.75;;
16330;SDS011;8275;48.206;16.340;2022-08-21T05:56:37;1.60;;;1.50;;
16330;SDS011;8275;48.206;16.340;2022-08-21T05:59:05;1.80;;;1.70;;
16330;SDS011;8275;48.206;16.340;2022-08-21T06:01:34;1.90;;;1.80;;
16330;SDS011;8275;48.206;16.340;2022-08-21T06:04:03;3.25;;;2.97;;
16330;SDS011;8275;48.206;16.340;2022-08-21T06:06:32;2.00;;;1.90;;
16330;SDS011;8275;48.206;16.340;2022-08-21T06:09:01;2.08;;;1.98;;
16330;SDS011;8275;48.206;16.340;2022-08-21T06:11:31;2.20;;;2.10;;
16330;SDS011;8275;48.206;16.340;2022-08-21T06:14:00;2.53;;;2.13;;
16330;SDS011;8275;48.206;16.340;2022-08-21T06:16:29;2.45;;;2.25;;
16330;SDS011;8275;48.206;16.340;2022-08-21T06:18:57;1.60;;;1.50;;
16330;SDS011;8275;48.206;16.340;2022-08-21T06:21:28;1.88;;;1.77;;
16330;SDS011;8275;48.206;16.340;2022-08-21T06:23:57;2.10;;;2.00;;
16330;SDS011;8275;48.206;16.340;2022-08-21T06:26:25;2.08;;;1.98;;
16330;SDS011;8275;48.206;16.340;2022-08-21T06:28:56;1.80;;;1.70;;
16330;SDS011;8275;48.206;16.340;2022-08-21T06:31:26;2.25;;;1.80;;
16330;SDS011;8275;48.206;16.340;2022-08-21T06:33:55;2.05;;;1.92;;
16330;SDS011;8275;48.206;16.340;2022-08-21T06:36:24;2.42;;;2.03;;
16330;SDS011;8275;48.206;16.340;2022-08-21T06:38:53;2.53;;;2.30;;
16330;SDS011;8275;48.206;16.340;2022-08-21T06:41:23;1.70;;;1.60;;
16330;SDS011;8275;48.206;16.340;2022-08-21T06:43:52;1.60;;;1.50;;
16330;SDS011;8275;48.206;16.340;2022-08-21T06:46:24;1.65;;;1.55;;
16330;SDS011;8275;48.206;16.340;2022-08-21T06:48:55;2.03;;;1.88;;
16330;SDS011;8275;48.206;16.340;2022-08-21T06:51:25;1.80;;;1.70;;
16330;SDS011;8275;48.206;16.340;2022-08-21T06:53:54;3.38;;;2.80;;
16330;SDS011;8275;48.206;16.340;2022-08-21T06:56:24;1.90;;;1.80;;
16330;SDS011;8275;48.206;16.340;2022-08-21T06:58:53;1.90;;;1.80;;
16330;SDS011;8275;48.206;16.340;2022-08-21T07:01:22;2.15;;;1.85;;
16330;SDS011;8275;48.206;16.340;2022-08-21T07:03:54;2.63;;;2.42;;
16330;SDS011;8275;48.206;16.340;2022-08-21T07:06:23;2.20;;;2.10;;
16330;SDS011;8275;48.206;16.340;2022-08-21T07:08:52;2.45;;;2.28;;
16330;SDS011;8275;48.206;16.340;2022-08-21T07:11:24;1.80;;;1.70;;
16330;SDS011;8275;48.206;16.340;2022-08-21T07:13:53;2.78;;;2.58;;
16330;SDS011;8275;48.206;16.340;2022-08-21T07:16:23;2.22;;;2.05;;
16330;SDS011;8275;48.206;16.340;2022-08-21T07:18:52;2.88;;;2.58;;
16330;SDS011;8275;48.206;16.340;2022-08-21T07:21:21;2.10;;;1.95;;
16330;SDS011;8275;48.206;16.340;2022-08-21T07:23:51;2.63;;;2.42;;
16330;SDS011;8275;48.206;16.340;2022-08-21T07:26:21;2.08;;;1.92;;
16330;SDS011;8275;48.206;16.340;2022-08-21T07:28:50;2.13;;;2.03;;
16330;SDS011;8275;48.206;16.340;2022-08-21T07:31:20;2.90;;;2.60;;
16330;SDS011;8275;48.206;16.340;2022-08-21T07:33:52;1.98;;;1.88;;
16330;SDS011;8275;48.206;16.340;2022-08-21T07:36:20;2.65;;;2.47;;
16330;SDS011;8275;48.206;16.340;2022-08-21T07:38:49;2.65;;;2.45;;
16330;SDS011;8275;48.206;16.340;2022-08-21T07:41:19;1.65;;;1.55;;
16330;SDS011;8275;48.206;16.340;2022-08-21T07:43:49;2.33;;;2.13;;
16330;SDS011;8275;48.206;16.340;2022-08-21T07:46:18;2.05;;;1.85;;
16330;SDS011;8275;48.206;16.340;2022-08-21T07:48:48;3.25;;;1.73;;
16330;SDS011;8275;48.206;16.340;2022-08-21T07:51:20;1.83;;;1.73;;
16330;SDS011;8275;48.206;16.340;2022-08-21T07:53:56;1.90;;;1.80;;
16330;SDS011;8275;48.206;16.340;2022-08-21T07:56:26;2.63;;;2.42;;
16330;SDS011;8275;48.206;16.340;2022-08-21T07:58:57;1.75;;;1.65;;
16330;SDS011;8275;48.206;16.340;2022-08-21T08:01:25;1.55;;;1.45;;
16330;SDS011;8275;48.206;16.340;2022-08-21T08:03:54;2.20;;;2.10;;
16330;SDS011;8275;48.206;16.340;2022-08-21T08:06:24;2.83;;;2.63;;
16330;SDS011;8275;48.206;16.340;2022-08-21T08:08:53;2.33;;;2.17;;
16330;SDS011;8275;48.206;16.340;2022-08-21T08:11:21;2.25;;;2.08;;
16330;SDS011;8275;48.206;16.340;2022-08-21T08:13:50;2.72;;;2.53;;
16330;SDS011;8275;48.206;16.340;2022-08-21T08:16:19;1.92;;;1.83;;
16330;SDS011;8275;48.206;16.340;2022-08-21T08:18:48;2.47;;;2.28;;
16330;SDS011;8275;48.206;16.340;2022-08-21T08:21:17;3.03;;;2.75;;
16330;SDS011;8275;48.206;16.340;2022-08-21T08:23:48;10.70;;;2.80;;
16330;SDS011;8275;48.206;16.340;2022-08-21T08:26:17;3.00;;;2.70;;
16330;SDS011;8275;48.206;16.340;2022-08-21T08:28:46;2.95;;;2.75;;
16330;SDS011;8275;48.206;16.340;2022-08-21T08:31:14;3.63;;;3.25;;
16330;SDS011;8275;48.206;16.340;2022-08-21T08:33:43;3.40;;;3.10;;
16330;SDS011;8275;48.206;16.340;2022-08-21T08:36:12;2.10;;;2.00;;
16330;SDS011;8275;48.206;16.340;2022-08-21T08:38:44;2.83;;;2.53;;
16330;SDS011;8275;48.206;16.340;2022-08-21T08:41:16;2.35;;;2.25;;
16330;SDS011;8275;48.206;16.340;2022-08-21T08:43:59;2.70;;;2.50;;
16330;SDS011;8275;48.206;16.340;2022-08-21T08:46:31;2.80;;;2.60;;
16330;SDS011;8275;48.206;16.340;2022-08-21T08:49:06;2.30;;;2.10;;
16330;SDS011;8275;48.206;16.340;2022-08-21T08:51:43;2.30;;;2.10;;
16330;SDS011;8275;48.206;16.340;2022-08-21T08:54:19;2.58;;;2.38;;
16330;SDS011;8275;48.206;16.340;2022-08-21T08:56:59;2.70;;;2.50;;
16330;SDS011;8275;48.206;16.340;2022-08-21T08:59:32;3.30;;;3.00;;
16330;SDS011;8275;48.206;16.340;2022-08-21T09:02:09;2.33;;;2.13;;
16330;SDS011;8275;48.206;16.340;2022-08-21T09:04:40;2.72;;;1.95;;
16330;SDS011;8275;48.206;16.340;2022-08-21T09:07:12;2.58;;;2.35;;
16330;SDS011;8275;48.206;16.340;2022-08-21T09:12:47;2.22;;;2.03;;
16330;SDS011;8275;48.206;16.340;2022-08-21T09:15:30;1.85;;;1.75;;
16330;SDS011;8275;48.206;16.340;2022-08-21T09:18:13;1.70;;;1.60;;
16330;SDS011;8275;48.206;16.340;2022-08-21T09:20:57;1.33;;;1.23;;
16330;SDS011;8275;48.206;16.340;2022-08-21T09:23:40;1.42;;;1.33;;
16330;SDS011;8275;48.206;16.340;2022-08-21T09:26:17;1.98;;;1.88;;
16330;SDS011;8275;48.206;16.340;2022-08-21T09:28:51;1.38;;;1.35;;
16330;SDS011;8275;48.206;16.340;2022-08-21T09:31:24;1.40;;;1.30;;
16330;SDS011;8275;48.206;16.340;2022-08-21T09:33:59;1.63;;;1.52;;
16330;SDS011;8275;48.206;16.340;2022-08-21T09:36:35;1.45;;;1.35;;
16330;SDS011;8275;48.206;16.340;2022-08-21T09:39:06;1.92;;;1.10;;
16330;SDS011;8275;48.206;16.340;2022-08-21T09:41:37;1.25;;;1.15;;
16330;SDS011;8275;48.206;16.340;2022-08-21T09:44:08;1.20;;;0.95;;
16330;SDS011;8275;48.206;16.340;2022-08-21T09:46:36;1.40;;;1.30;;
16330;SDS011;8275;48.206;16.340;2022-08-21T09:49:05;1.20;;;1.10;;
16330;SDS011;8275;48.206;16.340;2022-08-21T09:51:48;1.35;;;1.25;;
16330;SDS011;8275;48.206;16.340;2022-08-21T09:54:20;1.25;;;1.15;;
16330;SDS011;8275;48.206;16.340;2022-08-21T09:56:58;1.10;;;1.00;;
16330;SDS011;8275;48.206;16.340;2022-08-21T10:00:06;0.93;;;0.93;;
16330;SDS011;8275;48.206;16.340;2022-08-21T10:02:38;1.23;;;1.10;;
16330;SDS011;8275;48.206;16.340;2022-08-21T10:05:08;1.33;;;1.23;;
16330;SDS011;8275;48.206;16.340;2022-08-21T10:07:44;0.95;;;0.95;;
16330;SDS011;8275;48.206;16.340;2022-08-21T10:10:15;1.17;;;1.08;;
16330;SDS011;8275;48.206;16.340;2022-08-21T10:12:48;0.77;;;0.73;;
16330;SDS011;8275;48.206;16.340;2022-08-21T10:15:35;1.08;;;1.08;;
16330;SDS011;8275;48.206;16.340;2022-08-21T10:18:21;0.80;;;0.80;;
16330;SDS011;8275;48.206;16.340;2022-08-21T10:20:58;1.95;;;1.85;;
16330;SDS011;8275;48.206;16.340;2022-08-21T10:23:40;1.77;;;1.67;;
16330;SDS011;8275;48.206;16.340;2022-08-21T10:26:26;1.55;;;1.45;;
16330;SDS011;8275;48.206;16.340;2022-08-21T10:29:12;3.25;;;1.10;;
16330;SDS011;8275;48.206;16.340;2022-08-21T10:31:59;1.13;;;1.13;;
16330;SDS011;8275;48.206;16.340;2022-08-21T10:34:53;2.05;;;1.95;;
16330;SDS011;8275;48.206;16.340;2022-08-21T10:37:36;2.00;;;1.90;;
16330;SDS011;8275;48.206;16.340;2022-08-21T10:40:22;2.03;;;1.90;;
16330;SDS011;8275;48.206;16.340;2022-08-21T10:43:02;1.73;;;1.63;;
16330;SDS011;8275;48.206;16.340;2022-08-21T10:45:47;1.63;;;1.52;;
16330;SDS011;8275;48.206;16.340;2022-08-21T10:48:29;1.98;;;1.80;;
16330;SDS011;8275;48.206;16.340;2022-08-21T10:51:06;1.35;;;1.33;;
16330;SDS011;8275;48.206;16.340;2022-08-21T10:53:49;1.70;;;1.60;;
16330;SDS011;8275;48.206;16.340;2022-08-21T10:56:28;1.30;;;1.20;;
16330;SDS011;8275;48.206;16.340;2022-08-21T10:59:02;1.40;;;1.30;;
16330;SDS011;8275;48.206;16.340;2022-08-21T11:01:46;1.30;;;1.20;;
16330;SDS011;8275;48.206;16.340;2022-08-21T11:04:24;1.38;;;1.25;;
16330;SDS011;8275;48.206;16.340;2022-08-21T11:07:16;1.13;;;1.08;;
16330;SDS011;8275;48.206;16.340;2022-08-21T11:09:50;0.70;;;0.70;;
16330;SDS011;8275;48.206;16.340;2022-08-21T11:12:23;0.60;;;0.60;;
16330;SDS011;8275;48.206;16.340;2022-08-21T11:15:03;0.70;;;0.70;;
16330;SDS011;8275;48.206;16.340;2022-08-21T11:17:58;0.93;;;0.93;;
16330;SDS011;8275;48.206;16.340;2022-08-21T11:20:40;0.60;;;0.60;;
16330;SDS011;8275;48.206;16.340;2022-08-21T11:23:17;0.77;;;0.77;;
16330;SDS011;8275;48.206;16.340;2022-08-21T11:26:02;1.95;;;1.13;;
16330;SDS011;8275;48.206;16.340;2022-08-21T11:28:36;0.82;;;0.82;;
16330;SDS011;8275;48.206;16.340;2022-08-21T11:31:13;0.90;;;0.90;;
16330;SDS011;8275;48.206;16.340;2022-08-21T11:33:59;2.15;;;1.80;;
16330;SDS011;8275;48.206;16.340;2022-08-21T11:36:43;1.05;;;0.70;;
16330;SDS011;8275;48.206;16.340;2022-08-21T11:39:21;0.80;;;0.80;;
16330;SDS011;8275;48.206;16.340;2022-08-21T11:41:54;2.53;;;1.17;;
16330;SDS011;8275;48.206;16.340;2022-08-21T11:44:39;1.02;;;0.75;;
16330;SDS011;8275;48.206;16.340;2022-08-21T11:47:23;1.55;;;0.57;;
16330;SDS011;8275;48.206;16.340;2022-08-21T11:50:06;0.82;;;0.82;;
16330;SDS011;8275;48.206;16.340;2022-08-21T11:53:03;0.77;;;0.77;;
16330;SDS011;8275;48.206;16.340;2022-08-21T11:55:46;1.35;;;1.25;;
16330;SDS011;8275;48.206;16.340;2022-08-21T11:58:20;4.78;;;1.15;;
16330;SDS011;8275;48.206;16.340;2022-08-21T12:00:54;1.13;;;0.65;;
16330;SDS011;8275;48.206;16.340;2022-08-21T12:03:27;0.85;;;0.85;;
16330;SDS011;8275;48.206;16.340;2022-08-21T12:06:00;1.33;;;1.10;;
16330;SDS011;8275;48.206;16.340;2022-08-21T12:08:34;0.98;;;0.95;;
16330;SDS011;8275;48.206;16.340;2022-08-21T12:11:06;1.00;;;0.95;;
16330;SDS011;8275;48.206;16.340;2022-08-21T12:13:57;1.17;;;1.15;;
16330;SDS011;8275;48.206;16.340;2022-08-21T12:16:38;1.60;;;1.00;;
16330;SDS011;8275;48.206;16.340;2022-08-21T12:19:10;1.50;;;1.40;;
16330;SDS011;8275;48.206;16.340;2022-08-21T12:21:48;1.27;;;1.17;;
16330;SDS011;8275;48.206;16.340;2022-08-21T12:24:30;0.90;;;0.90;;
16330;SDS011;8275;48.206;16.340;2022-08-21T12:27:13;1.52;;;1.42;;
16330;SDS011;8275;48.206;16.340;2022-08-21T12:29:54;1.02;;;0.93;;
16330;SDS011;8275;48.206;16.340;2022-08-21T12:32:27;0.70;;;0.70;;
16330;SDS011;8275;48.206;16.340;2022-08-21T12:35:00;0.82;;;0.82;;
16330;SDS011;8275;48.206;16.340;2022-08-21T12:37:52;0.80;;;0.80;;
16330;SDS011;8275;48.206;16.340;2022-08-21T12:40:31;1.48;;;1.38;;
16330;SDS011;8275;48.206;16.340;2022-08-21T12:43:11;1.23;;;1.13;;
16330;SDS011;8275;48.206;16.340;2022-08-21T12:45:44;1.58;;;1.20;;
16330;SDS011;8275;48.206;16.340;2022-08-21T12:48:17;1.42;;;1.33;;
16330;SDS011;8275;48.206;16.340;2022-08-21T12:50:53;1.33;;;1.23;;
16330;SDS011;8275;48.206;16.340;2022-08-21T12:53:26;1.52;;;1.40;;
16330;SDS011;8275;48.206;16.340;2022-08-21T12:56:01;0.90;;;0.85;;
16330;SDS011;8275;48.206;16.340;2022-08-21T12:58:30;0.95;;;0.95;;
16330;SDS011;8275;48.206;16.340;2022-08-21T13:01:01;1.52;;;0.90;;
16330;SDS011;8275;48.206;16.340;2022-08-21T13:03:34;0.77;;;0.77;;
16330;SDS011;8275;48.206;16.340;2022-08-21T13:06:04;1.05;;;0.95;;
16330;SDS011;8275;48.206;16.340;2022-08-21T13:08:35;1.20;;;1.05;;
16330;SDS011;8275;48.206;16.340;2022-08-21T13:11:11;1.55;;;1.45;;
16330;SDS011;8275;48.206;16.340;2022-08-21T13:13:59;1.85;;;1.30;;
16330;SDS011;8275;48.206;16.340;2022-08-21T13:16:30;1.25;;;1.15;;
16330;SDS011;8275;48.206;16.340;2022-08-21T13:19:03;1.42;;;1.15;;
16330;SDS011;8275;48.206;16.340;2022-08-21T13:21:38;1.00;;;1.00;;
16330;SDS011;8275;48.206;16.340;2022-08-21T13:24:13;1.60;;;1.50;;
16330;SDS011;8275;48.206;16.340;2022-08-21T13:27:17;0.80;;;0.80;;
16330;SDS011;8275;48.206;16.340;2022-08-21T13:29:49;1.83;;;1.73;;
16330;SDS011;8275;48.206;16.340;2022-08-21T13:32:34;1.20;;;1.10;;
16330;SDS011;8275;48.206;16.340;2022-08-21T13:35:09;1.88;;;1.35;;
16330;SDS011;8275;48.206;16.340;2022-08-21T13:37:44;1.23;;;1.13;;
16330;SDS011;8275;48.206;16.340;2022-08-21T13:40:17;1.65;;;1.23;;
16330;SDS011;8275;48.206;16.340;2022-08-21T13:42:55;1.83;;;1.73;;
16330;SDS011;8275;48.206;16.340;2022-08-21T13:45:25;1.70;;;1.60;;
16330;SDS011;8275;48.206;16.340;2022-08-21T13:47:59;3.20;;;1.80;;
16330;SDS011;8275;48.206;16.340;2022-08-21T13:50:40;1.13;;;1.10;;
16330;SDS011;8275;48.206;16.340;2022-08-21T13:53:19;0.80;;;0.80;;
16330;SDS011;8275;48.206;16.340;2022-08-21T13:55:54;1.35;;;1.25;;
16330;SDS011;8275;48.206;16.340;2022-08-21T13:58:28;2.63;;;1.90;;
16330;SDS011;8275;48.206;16.340;2022-08-21T14:01:01;4.28;;;1.77;;
16330;SDS011;8275;48.206;16.340;2022-08-21T14:03:32;1.65;;;1.55;;
16330;SDS011;8275;48.206;16.340;2022-08-21T14:06:10;1.20;;;1.10;;
16330;SDS011;8275;48.206;16.340;2022-08-21T14:08:41;1.98;;;1.88;;
16330;SDS011;8275;48.206;16.340;2022-08-21T14:11:18;1.23;;;1.17;;
16330;SDS011;8275;48.206;16.340;2022-08-21T14:13:49;1.20;;;1.20;;
16330;SDS011;8275;48.206;16.340;2022-08-21T14:16:25;1.50;;;1.40;;
16330;SDS011;8275;48.206;16.340;2022-08-21T14:19:07;1.40;;;1.30;;
16330;SDS011;8275;48.206;16.340;2022-08-21T14:21:39;1.50;;;1.40;;
16330;SDS011;8275;48.206;16.340;2022-08-21T14:24:11;1.40;;;1.23;;
16330;SDS011;8275;48.206;16.340;2022-08-21T14:26:46;1.83;;;1.73;;
16330;SDS011;8275;48.206;16.340;2022-08-21T14:29:20;1.63;;;1.52;;
16330;SDS011;8275;48.206;16.340;2022-08-21T14:31:58;1.30;;;1.20;;
16330;SDS011;8275;48.206;16.340;2022-08-21T14:34:49;1.77;;;1.67;;
16330;SDS011;8275;48.206;16.340;2022-08-21T14:37:19;1.17;;;1.15;;
16330;SDS011;8275;48.206;16.340;2022-08-21T14:39:48;2.80;;;2.10;;
16330;SDS011;8275;48.206;16.340;2022-08-21T14:42:18;1.50;;;1.40;;
16330;SDS011;8275;48.206;16.340;2022-08-21T14:44:49;1.80;;;1.70;;
16330;SDS011;8275;48.206;16.340;2022-08-21T14:47:18;1.73;;;1.63;;
16330;SDS011;8275;48.206;16.340;2022-08-21T14:49:46;1.77;;;1.67;;
16330;SDS011;8275;48.206;16.340;2022-08-21T14:52:15;1.52;;;1.42;;
16330;SDS011;8275;48.206;16.340;2022-08-21T14:54:44;1.88;;;1.42;;
16330;SDS011;8275;48.206;16.340;2022-08-21T14:57:12;1.42;;;1.35;;
16330;SDS011;8275;48.206;16.340;2022-08-21T14:59:40;1.88;;;1.77;;
16330;SDS011;8275;48.206;16.340;2022-08-21T15:02:11;1.48;;;1.38;;
16330;SDS011;8275;48.206;16.340;2022-08-21T15:04:40;4.25;;;2.05;;
16330;SDS011;8275;48.206;16.340;2022-08-21T15:07:09;2.65;;;2.08;;
16330;SDS011;8275;48.206;16.340;2022-08-21T15:09:37;2.03;;;1.60;;
16330;SDS011;8275;48.206;16.340;2022-08-21T15:12:06;2.05;;;1.85;;
16330;SDS011;8275;48.206;16.340;2022-08-21T15:14:37;1.50;;;1.40;;
16330;SDS011;8275;48.206;16.340;2022-08-21T15:17:08;2.15;;;2.05;;
16330;SDS011;8275;48.206;16.340;2022-08-21T15:19:40;2.08;;;1.10;;
16330;SDS011;8275;48.206;16.340;2022-08-21T15:22:09;1.65;;;1.55;;
16330;SDS011;8275;48.206;16.340;2022-08-21T15:24:45;1.92;;;1.83;;